Time;durP1;ratioP1;P1;durP2;ratioP2;P2;SDS_P1;SDS_P2;PMS_P1;PMS_P2;Temp;Humidity;BMP_temperature;BMP_pressure;BME280_temperature;BME280_humidity;BME280_pressure;Samples;Min_cycle;Max_cycle;Signal;HPM_P1;HPM_P2
2022/08/03 00:02:24;;;;;;;3.57;3.00;;;23.10;62.50;;;;;;7386285;19;20412;-45
2022/08/03 00:04:56;;;;;;;3.13;2.83;;;23.10;62.60;;;;;;7386187;19;21324;-46
2022/08/03 00:07:26;;;;;;;4.03;2.73;;;23.00;62.50;;;;;;7385967;19;20380;-46
2022/08/03 00:09:55;;;;;;;3.30;3.00;;;23.00;63.40;;;;;;7391176;19;20384;-45
2022/08/03 00:12:25;;;;;;;3.20;2.80;;;22.90;64.40;;;;;;7391581;19;20376;-45
2022/08/03 00:14:54;;;;;;;3.70;2.73;;;23.00;64.00;;;;;;7390612;19;20973;-45
2022/08/03 00:17:26;;;;;;;2.90;2.60;;;23.00;63.30;;;;;;7391606;19;20842;-45
2022/08/03 00:19:58;;;;;;;3.33;2.80;;;22.90;63.40;;;;;;7386964;19;20911;-45
2022/08/03 00:22:29;;;;;;;3.00;2.60;;;22.80;64.30;;;;;;7384585;19;20380;-46
2022/08/03 00:24:59;;;;;;;3.30;2.93;;;22.70;65.00;;;;;;7387865;19;20479;-46
2022/08/03 00:27:28;;;;;;;3.97;2.47;;;22.60;65.60;;;;;;7390431;19;20384;-46
2022/08/03 00:29:58;;;;;;;4.30;2.90;;;22.60;66.20;;;;;;7388896;19;20973;-45
2022/08/03 00:32:33;;;;;;;3.27;2.97;;;22.50;66.70;;;;;;7390675;19;20401;-45
2022/08/03 00:35:02;;;;;;;3.80;2.30;;;22.70;66.60;;;;;;7386315;19;20387;-45
2022/08/03 00:37:32;;;;;;;5.20;3.07;;;22.70;66.60;;;;;;7387894;19;20383;-45
2022/08/03 00:40:02;;;;;;;3.03;2.73;;;22.60;66.70;;;;;;7386550;19;20380;-46
2022/08/03 00:42:31;;;;;;;5.60;3.00;;;22.60;67.20;;;;;;7388501;19;20376;-46
2022/08/03 00:45:00;;;;;;;3.23;2.87;;;22.60;68.00;;;;;;7389653;19;20364;-46
2022/08/03 00:47:32;;;;;;;4.83;2.70;;;22.50;69.10;;;;;;7387270;19;20821;-46
2022/08/03 00:50:02;;;;;;;3.47;3.13;;;22.50;68.50;;;;;;7387970;19;20897;-46
2022/08/03 00:52:31;;;;;;;3.27;2.90;;;22.50;68.30;;;;;;7387716;19;20769;-46
2022/08/03 00:55:02;;;;;;;2.80;2.60;;;22.70;68.00;;;;;;7385824;19;20925;-46
2022/08/03 00:57:33;;;;;;;4.63;3.67;;;22.70;67.90;;;;;;7388627;19;20372;-46
2022/08/03 01:00:03;;;;;;;4.20;2.97;;;22.50;69.00;;;;;;7386070;19;20460;-46
2022/08/03 01:02:35;;;;;;;2.93;2.70;;;22.60;69.50;;;;;;7385280;19;20811;-46
2022/08/03 01:05:08;;;;;;;2.97;2.70;;;22.60;70.50;;;;;;7389241;19;20390;-46
2022/08/03 01:07:53;;;;;;;4.47;3.33;;;22.40;71.40;;;;;;7386423;19;20415;-46
2022/08/03 01:10:30;;;;;;;3.63;2.97;;;22.40;71.60;;;;;;7385460;19;20463;-45
2022/08/03 01:13:04;;;;;;;5.10;2.97;;;22.50;71.50;;;;;;7388535;19;20817;-46
2022/08/03 01:15:40;;;;;;;5.10;2.73;;;22.60;71.00;;;;;;7385734;19;20372;-46
2022/08/03 01:18:20;;;;;;;4.07;2.80;;;22.50;71.20;;;;;;7385127;19;20368;-45
2022/08/03 01:20:55;;;;;;;3.20;2.87;;;22.40;71.90;;;;;;7388109;19;21002;-45
2022/08/03 01:23:46;;;;;;;4.33;3.07;;;22.40;73.20;;;;;;7387163;19;20884;-45
2022/08/03 01:26:33;;;;;;;3.23;2.87;;;22.30;73.80;;;;;;7382402;19;20718;-45
2022/08/03 01:29:12;;;;;;;3.00;2.80;;;22.20;75.00;;;;;;7387828;19;20431;-45
2022/08/03 01:31:54;;;;;;;2.93;2.63;;;22.10;75.20;;;;;;7385696;19;20417;-45
2022/08/03 01:34:27;;;;;;;4.10;3.03;;;22.20;74.70;;;;;;7385914;19;20422;-45
2022/08/03 01:36:59;;;;;;;4.13;3.00;;;22.30;74.30;;;;;;7384519;19;20387;-45
2022/08/03 01:39:33;;;;;;;2.57;2.37;;;22.40;73.50;;;;;;7386599;19;20372;-45
2022/08/03 01:42:07;;;;;;;3.10;2.80;;;22.40;72.90;;;;;;7384608;19;20388;-46
2022/08/03 01:44:42;;;;;;;3.03;2.47;;;22.50;72.60;;;;;;7387032;19;20740;-45
2022/08/03 01:47:15;;;;;;;3.20;2.90;;;22.40;71.40;;;;;;7382306;19;20384;-45
2022/08/03 01:49:47;;;;;;;2.70;2.30;;;22.10;73.20;;;;;;7384662;19;20376;-45
2022/08/03 01:52:20;;;;;;;2.90;2.70;;;22.20;73.30;;;;;;7388104;19;20368;-46
2022/08/03 01:54:53;;;;;;;3.03;2.63;;;22.30;73.20;;;;;;7382215;19;20369;-45
2022/08/03 01:57:24;;;;;;;2.90;2.70;;;22.30;74.20;;;;;;7383172;19;20409;-45
2022/08/03 01:59:58;;;;;;;3.23;2.93;;;22.20;74.50;;;;;;7384871;19;20491;-45
2022/08/03 02:02:33;;;;;;;2.93;2.57;;;22.10;74.60;;;;;;7377851;19;20885;-45
2022/08/03 02:05:04;;;;;;;3.33;3.03;;;22.10;74.80;;;;;;7381860;19;20366;-45
2022/08/03 02:07:35;;;;;;;3.10;2.83;;;22.10;75.20;;;;;;7385895;19;20413;-47
2022/08/03 02:10:08;;;;;;;3.60;2.70;;;22.20;75.00;;;;;;7385411;19;20383;-46
2022/08/03 02:12:40;;;;;;;3.03;2.80;;;22.10;75.30;;;;;;7387087;19;20379;-46
2022/08/03 02:15:13;;;;;;;2.73;2.53;;;22.10;74.40;;;;;;7382175;19;20460;-46
2022/08/03 02:17:47;;;;;;;3.40;3.10;;;22.00;75.50;;;;;;7384769;19;20393;-46
2022/08/03 02:20:18;;;;;;;3.10;2.90;;;22.00;76.00;;;;;;7379941;19;20378;-45
2022/08/03 02:22:48;;;;;;;2.80;2.60;;;22.00;75.70;;;;;;7386583;19;20459;-45
2022/08/03 02:25:18;;;;;;;2.77;2.47;;;22.00;76.40;;;;;;7382146;19;20726;-45
2022/08/03 02:27:54;;;;;;;2.73;2.53;;;22.00;76.00;;;;;;7381521;19;20380;-45
2022/08/03 02:30:25;;;;;;;3.73;2.77;;;22.00;76.70;;;;;;7385638;19;20958;-45
2022/08/03 02:33:00;;;;;;;3.83;3.43;;;21.80;77.70;;;;;;7380767;19;20384;-46
2022/08/03 02:35:34;;;;;;;3.00;2.70;;;21.90;78.00;;;;;;7382142;19;20384;-45
2022/08/03 02:38:09;;;;;;;3.40;3.10;;;21.70;78.40;;;;;;7382685;19;20375;-46
2022/08/03 02:40:41;;;;;;;4.50;2.87;;;21.80;79.20;;;;;;7385026;19;20380;-45
2022/08/03 02:43:18;;;;;;;3.10;2.80;;;21.70;79.70;;;;;;7385254;19;20376;-45
2022/08/03 02:45:51;;;;;;;3.00;2.70;;;21.60;79.10;;;;;;7381096;19;20380;-45
2022/08/03 02:48:26;;;;;;;3.97;3.03;;;21.60;80.10;;;;;;7379978;19;21585;-45
2022/08/03 02:50:59;;;;;;;3.20;2.90;;;21.50;81.10;;;;;;7380063;19;20755;-45
2022/08/03 02:53:30;;;;;;;3.80;3.03;;;21.50;81.60;;;;;;7386224;19;20409;-45
2022/08/03 02:56:01;;;;;;;3.30;3.00;;;21.60;81.00;;;;;;7385370;19;20379;-46
2022/08/03 02:58:33;;;;;;;2.90;2.70;;;21.60;80.50;;;;;;7383667;19;20384;-45
2022/08/03 03:01:04;;;;;;;3.33;3.03;;;21.60;81.20;;;;;;7380680;19;20440;-45
2022/08/03 03:03:37;;;;;;;3.67;2.90;;;21.50;82.60;;;;;;7383221;19;20455;-46
2022/08/03 03:06:08;;;;;;;2.87;2.60;;;21.50;82.30;;;;;;7383196;19;20426;-45
2022/08/03 03:08:39;;;;;;;2.97;2.57;;;21.50;82.20;;;;;;7383217;19;20380;-45
2022/08/03 03:11:10;;;;;;;2.57;2.37;;;21.60;80.20;;;;;;7392938;19;20372;-45
2022/08/03 03:13:41;;;;;;;3.70;3.40;;;21.70;80.00;;;;;;7396312;19;20375;-45
2022/08/03 03:16:11;;;;;;;5.27;3.30;;;21.60;79.60;;;;;;7397867;19;20379;-45
2022/08/03 03:18:45;;;;;;;3.50;2.70;;;21.50;80.70;;;;;;7395610;19;20387;-46
2022/08/03 03:21:18;;;;;;;3.60;3.20;;;21.40;84.30;;;;;;7396948;19;20374;-46
2022/08/03 03:23:48;;;;;;;3.93;3.30;;;21.20;86.80;;;;;;7396218;19;20928;-46
2022/08/03 03:26:18;;;;;;;3.70;2.97;;;21.30;85.80;;;;;;7395332;19;20383;-46
2022/08/03 03:28:51;;;;;;;6.97;3.40;;;21.20;87.20;;;;;;7393419;19;20376;-46
2022/08/03 03:31:20;;;;;;;3.70;3.40;;;21.20;89.60;;;;;;7396707;19;20420;-46
2022/08/03 03:33:53;;;;;;;4.53;3.00;;;21.10;90.90;;;;;;7397192;19;20384;-46
2022/08/03 03:36:22;;;;;;;3.90;3.60;;;21.00;91.40;;;;;;7394093;19;20379;-47
2022/08/03 03:38:52;;;;;;;3.30;2.93;;;21.00;90.60;;;;;;7397986;19;20391;-46
2022/08/03 03:41:21;;;;;;;4.77;3.80;;;21.00;90.20;;;;;;7396815;19;20384;-46
2022/08/03 03:43:51;;;;;;;3.60;3.30;;;21.00;91.00;;;;;;7396684;19;20376;-46
2022/08/03 03:46:21;;;;;;;4.27;3.07;;;21.00;90.30;;;;;;7395672;19;20380;-47
2022/08/03 03:48:53;;;;;;;3.80;3.27;;;21.20;89.70;;;;;;7395243;19;20416;-47
2022/08/03 03:51:22;;;;;;;3.73;3.37;;;21.30;90.80;;;;;;7399576;19;20380;-46
2022/08/03 03:53:59;;;;;;;5.60;4.00;;;21.20;91.50;;;;;;7395057;19;20384;-47
2022/08/03 03:56:28;;;;;;;4.57;3.77;;;21.20;92.50;;;;;;7396046;19;20503;-46
2022/08/03 03:58:58;;;;;;;5.27;4.77;;;21.10;93.10;;;;;;7395350;19;20372;-46
2022/08/03 04:01:27;;;;;;;5.20;4.40;;;21.10;94.10;;;;;;7394299;19;20855;-46
2022/08/03 04:10:57;;;;;;;4.83;4.20;;;21.00;95.50;;;;;;7395109;19;20416;-46
2022/08/03 04:12:20;;;;;;;5.03;4.07;;;21.00;96.00;;;;;;7398165;19;20379;-46
2022/08/03 04:14:50;;;;;;;6.17;3.90;;;21.00;95.80;;;;;;7393627;19;20372;-46
2022/08/03 04:17:21;;;;;;;4.70;4.17;;;21.00;95.60;;;;;;7395899;19;20376;-46
2022/08/03 04:19:56;;;;;;;4.70;4.30;;;21.10;94.80;;;;;;7396622;19;20399;-45
2022/08/03 04:22:28;;;;;;;4.33;3.90;;;21.20;93.80;;;;;;7392066;19;20380;-45
2022/08/03 04:25:03;;;;;;;4.67;4.27;;;21.20;93.50;;;;;;7389583;19;21036;-46
2022/08/03 04:27:39;;;;;;;4.90;4.30;;;21.10;93.90;;;;;;7390925;19;20398;-45
2022/08/03 04:30:12;;;;;;;4.90;4.00;;;21.20;94.50;;;;;;7383541;19;20411;-45
2022/08/03 04:32:44;;;;;;;4.70;4.30;;;21.40;94.20;;;;;;7388891;19;20736;-45
2022/08/03 04:35:16;;;;;;;5.03;4.50;;;21.40;94.10;;;;;;7385436;19;20917;-45
2022/08/03 04:37:49;;;;;;;4.23;3.40;;;21.40;94.60;;;;;;7386149;19;20409;-45
2022/08/03 04:40:24;;;;;;;4.37;3.97;;;21.40;93.40;;;;;;7388428;19;20372;-46
2022/08/03 04:42:56;;;;;;;6.23;4.63;;;21.30;94.60;;;;;;7388563;19;20388;-45
2022/08/03 04:45:27;;;;;;;5.73;5.07;;;21.20;95.70;;;;;;7384050;19;20380;-45
2022/08/03 04:47:56;;;;;;;5.00;4.50;;;21.20;97.00;;;;;;7383551;19;20376;-45
2022/08/03 04:50:29;;;;;;;5.10;4.60;;;21.20;96.60;;;;;;7387827;19;20451;-46
2022/08/03 04:53:10;;;;;;;6.17;4.57;;;21.30;96.90;;;;;;7388116;19;20380;-46
2022/08/03 04:55:40;;;;;;;6.37;4.17;;;21.30;96.50;;;;;;7385478;19;20463;-46
2022/08/03 04:58:09;;;;;;;5.37;4.87;;;21.40;95.80;;;;;;7386698;19;20479;-46
2022/08/03 05:00:39;;;;;;;7.17;5.07;;;21.60;94.40;;;;;;7384502;19;20827;-46
2022/08/03 05:03:10;;;;;;;5.13;4.63;;;21.60;94.50;;;;;;7384577;19;20388;-46
2022/08/03 05:05:42;;;;;;;6.00;5.20;;;21.70;95.10;;;;;;7387146;19;20727;-46
2022/08/03 05:08:12;;;;;;;5.40;4.50;;;21.60;96.40;;;;;;7388014;19;20392;-46
2022/08/03 05:10:42;;;;;;;5.23;4.73;;;21.50;97.10;;;;;;7384325;19;21632;-46
2022/08/03 05:13:13;;;;;;;4.70;4.27;;;21.50;97.40;;;;;;7388595;19;20452;-46
2022/08/03 05:15:43;;;;;;;6.70;4.60;;;21.50;97.80;;;;;;7380780;19;20405;-46
2022/08/03 05:18:13;;;;;;;6.77;5.10;;;21.40;98.10;;;;;;7388531;19;20409;-46
2022/08/03 05:20:45;;;;;;;5.70;5.03;;;21.40;98.70;;;;;;7387627;19;20380;-46
2022/08/03 05:23:14;;;;;;;5.53;4.40;;;21.40;99.20;;;;;;7387983;19;20657;-46
2022/08/03 05:25:44;;;;;;;5.90;5.13;;;21.60;98.80;;;;;;7387032;19;20405;-46
2022/08/03 05:28:16;;;;;;;6.40;5.10;;;21.60;98.00;;;;;;7388859;19;20360;-46
2022/08/03 05:30:46;;;;;;;6.30;4.30;;;21.60;98.60;;;;;;7384551;19;20920;-45
2022/08/03 05:33:15;;;;;;;5.23;4.53;;;21.60;98.80;;;;;;7382864;19;20384;-45
2022/08/03 05:35:48;;;;;;;5.50;5.00;;;21.60;97.20;;;;;;7380927;19;20384;-45
2022/08/03 05:38:17;;;;;;;4.90;4.50;;;21.80;96.50;;;;;;7385125;19;20376;-45
2022/08/03 05:40:47;;;;;;;4.53;4.13;;;21.90;96.00;;;;;;7385859;19;20745;-45
2022/08/03 05:43:16;;;;;;;4.90;4.50;;;22.00;95.10;;;;;;7380812;19;20376;-45
2022/08/03 05:45:45;;;;;;;4.90;4.37;;;22.10;94.60;;;;;;7387411;19;20371;-45
2022/08/03 05:48:15;;;;;;;6.27;5.67;;;22.30;94.20;;;;;;7379710;19;20761;-46
2022/08/03 05:50:47;;;;;;;7.27;4.73;;;22.40;93.20;;;;;;7383625;19;20752;-45
2022/08/03 05:53:16;;;;;;;6.03;4.83;;;22.60;92.90;;;;;;7380634;19;20413;-45
2022/08/03 05:55:46;;;;;;;7.13;5.30;;;22.70;91.90;;;;;;7377859;19;20388;-45
2022/08/03 05:58:15;;;;;;;5.80;5.20;;;22.80;91.10;;;;;;7385893;19;20380;-45
2022/08/03 06:00:45;;;;;;;6.10;5.10;;;23.00;90.20;;;;;;7380281;19;20803;-46
2022/08/03 06:03:14;;;;;;;7.67;5.20;;;23.10;88.20;;;;;;7379949;19;20384;-49
2022/08/03 06:05:44;;;;;;;5.77;4.67;;;23.20;86.80;;;;;;7382991;19;20942;-46
2022/08/03 06:08:16;;;;;;;6.90;5.10;;;23.30;87.20;;;;;;7382636;19;20918;-45
2022/08/03 06:10:45;;;;;;;5.50;4.60;;;23.30;86.00;;;;;;7385729;19;20400;-45
2022/08/03 06:13:18;;;;;;;6.00;5.07;;;23.40;86.20;;;;;;7387064;19;20391;-46
2022/08/03 06:15:47;;;;;;;5.77;4.90;;;23.50;84.80;;;;;;7381753;19;20384;-46
2022/08/03 06:18:17;;;;;;;4.60;4.20;;;23.70;83.60;;;;;;7384512;19;20380;-46
2022/08/03 06:20:46;;;;;;;5.17;4.73;;;23.90;81.50;;;;;;7386793;19;20368;-46
2022/08/03 06:23:18;;;;;;;3.90;3.60;;;24.00;80.70;;;;;;7384215;19;20384;-46
2022/08/03 06:25:49;;;;;;;5.37;4.40;;;24.20;79.60;;;;;;7384830;19;20435;-46
2022/08/03 06:28:18;;;;;;;5.30;4.27;;;24.30;78.80;;;;;;7375575;19;20384;-46
2022/08/03 06:30:48;;;;;;;7.00;4.20;;;24.40;77.50;;;;;;7384766;19;20372;-46
2022/08/03 06:33:17;;;;;;;8.20;4.10;;;24.60;76.70;;;;;;7381777;19;20376;-46
2022/08/03 06:35:47;;;;;;;4.87;4.33;;;24.70;75.80;;;;;;7380193;19;20380;-46
2022/08/03 06:38:19;;;;;;;4.70;3.90;;;24.90;74.30;;;;;;7382447;19;20925;-46
2022/08/03 06:40:48;;;;;;;7.33;4.80;;;25.10;73.70;;;;;;7378945;19;20391;-46
2022/08/03 06:43:18;;;;;;;4.10;3.70;;;25.20;72.60;;;;;;7384145;19;20447;-46
2022/08/03 06:45:48;;;;;;;4.33;3.80;;;25.30;72.60;;;;;;7382935;19;20834;-46
2022/08/03 06:48:17;;;;;;;4.77;4.37;;;25.40;70.00;;;;;;7383798;19;20961;-46
2022/08/03 06:50:47;;;;;;;4.20;3.80;;;25.50;70.50;;;;;;7380790;19;20376;-46
2022/08/03 06:53:19;;;;;;;6.50;4.50;;;25.60;69.90;;;;;;7380796;19;20930;-46
2022/08/03 06:55:48;;;;;;;4.33;3.83;;;25.70;68.60;;;;;;7382092;19;20666;-46
2022/08/03 06:58:18;;;;;;;6.70;3.70;;;25.80;67.80;;;;;;7385800;19;20916;-46
2022/08/03 07:00:47;;;;;;;9.40;3.70;;;25.90;67.90;;;;;;7382554;19;20537;-46
2022/08/03 07:03:17;;;;;;;4.57;3.90;;;26.00;66.50;;;;;;7381363;19;20399;-46
2022/08/03 07:05:47;;;;;;;4.20;3.80;;;26.20;65.70;;;;;;7382695;19;20380;-46
2022/08/03 07:08:20;;;;;;;4.30;3.70;;;26.30;64.10;;;;;;7379132;19;20380;-46
2022/08/03 07:10:52;;;;;;;6.40;4.13;;;26.50;63.40;;;;;;7379896;19;20387;-46
2022/08/03 07:13:22;;;;;;;4.63;3.43;;;26.50;63.20;;;;;;7385482;19;21077;-46
2022/08/03 07:15:51;;;;;;;5.53;4.60;;;26.70;63.30;;;;;;7380183;19;20387;-47
2022/08/03 07:18:21;;;;;;;4.43;4.00;;;26.80;63.80;;;;;;7380629;19;20383;-50
2022/08/03 07:20:50;;;;;;;6.10;4.10;;;26.90;63.20;;;;;;7374561;19;20451;-46
2022/08/03 07:23:22;;;;;;;7.40;4.70;;;27.00;63.10;;;;;;7377991;19;20921;-46
2022/08/03 07:25:52;;;;;;;5.37;3.60;;;27.20;62.80;;;;;;7381368;19;20416;-46
2022/08/03 07:28:22;;;;;;;6.27;4.10;;;27.20;62.70;;;;;;7380895;19;20368;-46
2022/08/03 07:30:51;;;;;;;4.00;3.60;;;27.30;62.00;;;;;;7385204;19;20380;-47
2022/08/03 07:33:21;;;;;;;9.60;4.40;;;27.50;61.40;;;;;;7378795;19;20379;-47
2022/08/03 07:35:50;;;;;;;4.10;3.63;;;27.60;61.10;;;;;;7381226;19;20408;-46
2022/08/03 07:44:53;;;;;;;9.63;4.50;;;28.00;59.70;;;;;;7382898;19;20755;-47
2022/08/03 07:47:25;;;;;;;6.73;4.10;;;28.00;59.10;;;;;;7381403;19;20383;-47
2022/08/03 07:49:55;;;;;;;4.73;3.77;;;28.20;59.10;;;;;;7380079;19;20439;-47
2022/08/03 07:55:07;;;;;;;4.07;3.23;;;28.50;58.10;;;;;;7379746;19;20419;-47
2022/08/03 07:57:37;;;;;;;6.10;3.67;;;28.70;57.80;;;;;;7387185;19;20372;-47
2022/08/03 08:00:16;;;;;;;8.67;3.73;;;28.80;56.40;;;;;;7387773;19;20428;-48
2022/08/03 08:02:46;;;;;;;4.90;4.17;;;29.00;56.00;;;;;;7387782;19;20936;-47
2022/08/03 08:05:16;;;;;;;6.27;3.87;;;29.20;55.90;;;;;;7386341;19;20376;-47
2022/08/03 08:07:46;;;;;;;6.40;4.00;;;29.30;55.10;;;;;;7387752;19;20365;-47
2022/08/03 08:10:15;;;;;;;5.37;4.10;;;29.40;55.00;;;;;;7386670;19;20412;-48
2022/08/03 08:12:45;;;;;;;4.60;3.00;;;29.60;54.30;;;;;;7387096;19;20988;-48
2022/08/03 08:15:17;;;;;;;4.10;2.80;;;29.70;54.30;;;;;;7389930;19;20376;-47
2022/08/03 08:17:51;;;;;;;2.40;2.20;;;29.80;53.40;;;;;;7389058;19;20952;-48
2022/08/03 08:20:22;;;;;;;2.93;2.50;;;29.90;52.50;;;;;;7387983;19;20772;-48
2022/08/03 08:22:52;;;;;;;7.50;3.20;;;30.10;52.40;;;;;;7385527;19;20375;-48
2022/08/03 08:25:22;;;;;;;3.20;2.90;;;30.20;52.30;;;;;;7387036;19;20376;-48
2022/08/03 08:27:52;;;;;;;6.03;2.73;;;30.50;52.10;;;;;;7385704;19;20940;-48
2022/08/03 08:30:25;;;;;;;3.23;2.77;;;30.70;51.40;;;;;;7384329;19;20495;-48
2022/08/03 08:32:54;;;;;;;4.30;2.93;;;30.80;51.30;;;;;;7388159;19;20392;-48
2022/08/03 08:35:24;;;;;;;4.07;2.83;;;31.10;50.80;;;;;;7388438;19;21049;-47
2022/08/03 08:37:53;;;;;;;2.70;2.50;;;31.20;50.10;;;;;;7387509;19;20400;-48
2022/08/03 08:40:24;;;;;;;2.50;1.90;;;31.30;49.20;;;;;;7385700;19;20408;-48
2022/08/03 08:42:53;;;;;;;5.50;2.60;;;31.50;48.60;;;;;;7386757;19;20384;-48
2022/08/03 08:45:26;;;;;;;4.73;2.30;;;31.70;48.10;;;;;;7387010;19;20443;-48
2022/08/03 08:47:57;;;;;;;1.73;1.40;;;32.10;47.10;;;;;;7388613;19;20472;-47
2022/08/03 08:50:26;;;;;;;2.70;1.27;;;32.20;44.40;;;;;;7388218;19;20370;-47
2022/08/03 08:53:01;;;;;;;7.90;2.00;;;32.30;44.90;;;;;;7386849;19;20736;-47
2022/08/03 08:55:31;;;;;;;1.90;1.20;;;32.40;44.50;;;;;;7382653;19;20973;-48
2022/08/03 08:58:06;;;;;;;1.97;1.50;;;32.50;43.70;;;;;;7385417;19;20407;-48
2022/08/03 09:00:38;;;;;;;2.77;1.20;;;32.50;43.30;;;;;;7385201;19;20427;-48
2022/08/03 09:03:15;;;;;;;2.60;1.73;;;32.80;43.50;;;;;;7387296;19;20783;-48
2022/08/03 09:05:45;;;;;;;2.10;1.90;;;33.00;42.30;;;;;;7388321;19;20399;-47
2022/08/03 09:08:14;;;;;;;1.40;1.10;;;33.20;42.20;;;;;;7383020;19;20412;-47
2022/08/03 09:10:48;;;;;;;4.67;1.43;;;33.50;41.50;;;;;;7389032;19;20737;-47
2022/08/03 09:13:18;;;;;;;1.43;1.30;;;33.70;41.60;;;;;;7386458;19;20384;-47
2022/08/03 09:15:50;;;;;;;2.03;1.33;;;33.90;41.10;;;;;;7383443;19;20384;-47
2022/08/03 09:18:32;;;;;;;3.10;1.37;;;34.20;40.50;;;;;;7385292;19;20379;-47
2022/08/03 09:21:14;;;;;;;1.60;1.37;;;34.10;39.80;;;;;;7383886;19;20785;-47
2022/08/03 09:23:49;;;;;;;2.50;1.70;;;34.60;38.70;;;;;;7387012;19;20739;-47
2022/08/03 09:26:25;;;;;;;1.97;1.20;;;34.80;39.20;;;;;;7388040;19;20451;-47
2022/08/03 09:29:01;;;;;;;3.20;1.40;;;35.30;38.80;;;;;;7381203;19;20368;-47
2022/08/03 09:31:38;;;;;;;1.40;1.30;;;35.60;38.40;;;;;;7386003;19;20376;-47
2022/08/03 09:34:09;;;;;;;2.00;1.63;;;36.00;38.30;;;;;;7385330;19;20379;-47
2022/08/03 09:36:43;;;;;;;1.20;1.10;;;36.20;37.40;;;;;;7385680;19;20910;-47
2022/08/03 09:39:15;;;;;;;1.33;1.23;;;36.80;36.10;;;;;;7381558;19;20383;-47
2022/08/03 09:41:48;;;;;;;1.80;1.43;;;37.00;34.90;;;;;;7386274;19;20444;-47
2022/08/03 09:44:17;;;;;;;3.70;1.90;;;37.60;34.90;;;;;;7385995;19;20413;-47
2022/08/03 09:46:54;;;;;;;2.13;1.50;;;37.40;33.80;;;;;;7386064;19;20369;-47
2022/08/03 09:49:23;;;;;;;1.43;1.30;;;37.80;32.50;;;;;;7385927;19;20423;-47
2022/08/03 09:51:53;;;;;;;1.30;1.20;;;38.20;32.60;;;;;;7382137;19;20387;-48
2022/08/03 09:54:29;;;;;;;1.93;1.20;;;38.30;31.20;;;;;;7384761;19;20372;-47
2022/08/03 09:56:59;;;;;;;1.67;1.23;;;38.50;31.30;;;;;;7384609;19;20426;-47
2022/08/03 09:59:30;;;;;;;1.80;1.57;;;39.00;30.70;;;;;;7385779;19;20380;-48
2022/08/03 10:02:02;;;;;;;1.40;1.30;;;39.60;30.50;;;;;;7382379;19;20376;-48
2022/08/03 10:04:32;;;;;;;2.63;1.33;;;40.20;30.40;;;;;;7383668;19;20409;-48
2022/08/03 10:07:08;;;;;;;1.57;1.30;;;40.70;29.20;;;;;;7385369;19;21025;-47
2022/08/03 10:09:38;;;;;;;1.50;1.40;;;40.60;29.40;;;;;;7383960;19;20376;-48
2022/08/03 10:12:12;;;;;;;1.60;1.20;;;40.60;29.90;;;;;;7385806;19;20376;-48
2022/08/03 10:14:44;;;;;;;1.53;1.30;;;40.80;29.40;;;;;;7379450;19;20368;-48
2022/08/03 10:17:18;;;;;;;1.30;1.20;;;41.20;29.10;;;;;;7383232;19;20379;-48
2022/08/03 10:19:48;;;;;;;2.87;1.43;;;41.40;27.90;;;;;;7381768;19;20921;-48
2022/08/03 10:22:23;;;;;;;1.20;1.10;;;41.70;28.20;;;;;;7384063;19;20954;-49
2022/08/03 10:24:58;;;;;;;2.07;1.40;;;42.10;27.70;;;;;;7381097;19;20375;-49
2022/08/03 10:27:29;;;;;;;1.30;1.20;;;41.90;27.60;;;;;;7382401;19;20411;-48
2022/08/03 10:30:05;;;;;;;1.47;1.00;;;42.30;27.50;;;;;;7384718;19;20918;-49
2022/08/03 10:32:44;;;;;;;1.53;1.43;;;42.70;27.00;;;;;;7380954;19;20375;-49
2022/08/03 10:35:16;;;;;;;1.30;1.20;;;42.90;26.80;;;;;;7379233;19;20471;-48
2022/08/03 10:37:52;;;;;;;1.83;1.50;;;;;;;;;;7382884;19;20392;-48
2022/08/03 10:40:25;;;;;;;1.37;1.27;;;42.70;26.50;;;;;;7384336;19;20368;-48
2022/08/03 10:43:00;;;;;;;1.90;1.33;;;42.70;31.60;;;;;;7385605;19;20363;-49
2022/08/03 10:45:30;;;;;;;4.20;1.70;;;43.30;26.80;;;;;;7382781;19;20772;-48
2022/08/03 10:48:03;;;;;;;1.50;1.40;;;43.00;26.20;;;;;;7385478;19;20412;-48
2022/08/03 10:50:33;;;;;;;2.87;1.30;;;44.00;26.50;;;;;;7383602;19;20809;-49
2022/08/03 10:53:05;;;;;;;1.97;1.50;;;45.50;24.50;;;;;;7381961;19;20377;-49
2022/08/03 10:58:57;;;;;;;1.60;1.23;;;46.90;23.50;;;;;;7384216;19;20393;-49
2022/08/03 11:01:54;;;;;;;2.07;1.70;;;48.00;23.00;;;;;;7381947;19;21099;-49
2022/08/03 11:04:28;;;;;;;1.33;1.23;;;47.80;22.70;;;;;;7383371;19;20425;-48
2022/08/03 11:07:22;;;;;;;2.07;1.50;;;47.20;23.60;;;;;;7381638;19;20372;-49
2022/08/03 11:09:53;;;;;;;4.87;1.67;;;47.30;23.30;;;;;;7381337;19;20914;-49
2022/08/03 11:12:25;;;;;;;2.00;1.40;;;47.20;23.40;;;;;;7381721;19;20384;-49
2022/08/03 11:14:59;;;;;;;1.43;1.33;;;47.50;23.30;;;;;;7385122;19;20741;-49
2022/08/03 11:17:28;;;;;;;2.13;1.20;;;47.80;23.10;;;;;;7379207;19;20484;-49
2022/08/03 11:20:00;;;;;;;1.67;1.13;;;48.10;23.10;;;;;;7383503;19;20383;-49
2022/08/03 11:22:53;;;;;;;1.30;1.20;;;48.60;22.90;;;;;;7382952;19;20372;-50
2022/08/03 11:25:22;;;;;;;1.60;1.27;;;48.80;22.50;;;;;;7383394;19;20364;-49
2022/08/03 11:28:28;;;;;;;1.50;1.40;;;48.40;23.00;;;;;;7383072;19;20368;-49
2022/08/03 11:30:57;;;;;;;2.80;1.50;;;48.60;22.60;;;;;;7383433;19;20447;-50
2022/08/03 11:33:33;;;;;;;2.47;1.30;;;48.10;22.80;;;;;;7392339;19;20372;-49
2022/08/03 11:36:05;;;;;;;2.00;1.60;;;48.30;22.80;;;;;;7390080;19;20777;-49
2022/08/03 11:38:35;;;;;;;1.80;1.70;;;48.80;22.90;;;;;;7385017;19;20745;-50
2022/08/03 11:41:04;;;;;;;2.03;1.50;;;49.60;22.20;;;;;;7390194;19;20387;-49
2022/08/03 11:43:46;;;;;;;1.03;1.00;;;49.50;22.40;;;;;;7388347;19;20380;-49
2022/08/03 11:46:20;;;;;;;2.07;1.70;;;49.80;22.10;;;;;;7391522;19;20374;-49
2022/08/03 11:48:57;;;;;;;1.40;1.30;;;49.60;21.90;;;;;;7386176;19;20383;-49
2022/08/03 11:51:33;;;;;;;1.30;1.20;;;49.20;22.20;;;;;;7390281;19;20371;-49
2022/08/03 11:54:04;;;;;;;1.57;1.47;;;48.70;22.30;;;;;;7390700;19;20388;-49
2022/08/03 11:56:47;;;;;;;2.17;1.43;;;48.00;22.60;;;;;;7389604;19;20372;-49
2022/08/03 11:59:17;;;;;;;1.70;1.60;;;47.90;22.70;;;;;;7386233;19;20375;-49
2022/08/03 12:01:46;;;;;;;1.50;1.40;;;46.60;23.50;;;;;;7387390;19;21000;-49
2022/08/03 12:04:16;;;;;;;1.50;1.40;;;46.20;24.00;;;;;;7383425;19;20387;-49
2022/08/03 12:07:00;;;;;;;1.93;1.77;;;47.20;23.40;;;;;;7389743;19;20368;-49
2022/08/03 12:09:34;;;;;;;1.37;1.27;;;47.60;23.20;;;;;;7389280;19;20901;-49
2022/08/03 12:12:05;;;;;;;1.50;1.40;;;48.50;22.50;;;;;;7389180;19;20367;-49
2022/08/03 12:14:35;;;;;;;1.50;1.40;;;49.40;22.10;;;;;;7385548;19;20977;-49
2022/08/03 12:17:04;;;;;;;1.37;1.20;;;49.60;21.70;;;;;;7388225;19;20360;-49
2022/08/03 12:19:44;;;;;;;1.17;1.07;;;49.60;21.70;;;;;;7390702;19;20787;-49
2022/08/03 12:22:16;;;;;;;1.40;1.23;;;49.20;22.00;;;;;;7389570;19;20410;-49
2022/08/03 12:24:47;;;;;;;1.40;1.30;;;49.50;22.20;;;;;;7387165;19;20412;-49
2022/08/03 12:27:28;;;;;;;2.43;1.30;;;49.90;21.70;;;;;;7387007;19;20840;-48
2022/08/03 12:29:59;;;;;;;1.80;1.60;;;50.30;21.50;;;;;;7389598;19;20411;-48
2022/08/03 12:32:29;;;;;;;1.73;1.63;;;50.40;21.40;;;;;;7390523;19;20379;-48
2022/08/03 12:35:03;;;;;;;1.57;1.47;;;50.00;21.70;;;;;;7389244;19;20380;-48
2022/08/03 12:37:36;;;;;;;3.33;1.40;;;50.40;21.50;;;;;;7389391;19;20415;-48
2022/08/03 12:40:09;;;;;;;1.80;1.30;;;50.20;21.70;;;;;;7387267;19;20368;-48
2022/08/03 12:42:41;;;;;;;2.40;1.40;;;50.00;21.50;;;;;;7383874;19;20360;-48
2022/08/03 12:45:24;;;;;;;2.00;1.60;;;50.10;21.70;;;;;;7388581;19;20368;-48
2022/08/03 12:47:56;;;;;;;3.17;1.77;;;50.20;21.70;;;;;;7386717;19;20515;-48
2022/08/03 12:50:27;;;;;;;2.07;1.70;;;50.00;21.90;;;;;;7387826;19;20540;-48
2022/08/03 12:53:01;;;;;;;1.70;1.60;;;49.90;21.60;;;;;;7383770;19;20444;-48
2022/08/03 12:55:35;;;;;;;1.60;1.50;;;49.20;21.90;;;;;;7390925;19;20392;-48
2022/08/03 12:58:06;;;;;;;1.87;1.63;;;47.70;22.60;;;;;;7389312;19;20435;-47
2022/08/03 13:00:36;;;;;;;1.37;1.27;;;45.40;24.40;;;;;;7383888;19;20523;-47
2022/08/03 13:03:07;;;;;;;2.23;1.57;;;44.30;25.10;;;;;;7385111;19;20463;-47
2022/08/03 13:05:45;;;;;;;2.20;2.00;;;43.10;26.10;;;;;;7386793;19;20380;-47
2022/08/03 13:08:26;;;;;;;2.20;1.60;;;42.20;26.90;;;;;;7385496;19;20960;-47
2022/08/03 13:10:56;;;;;;;1.50;1.40;;;41.50;27.70;;;;;;7387207;19;20391;-47
2022/08/03 13:13:40;;;;;;;2.30;1.70;;;40.70;28.10;;;;;;7386924;19;20440;-47
2022/08/03 13:16:10;;;;;;;1.50;1.40;;;39.80;28.90;;;;;;7386312;19;20406;-46
2022/08/03 13:18:39;;;;;;;2.73;2.07;;;39.00;29.50;;;;;;7356544;19;20503;-47
2022/08/03 13:21:12;;;;;;;2.80;1.70;;;38.50;30.10;;;;;;7385640;19;20388;-48
2022/08/03 13:23:47;;;;;;;3.23;1.80;;;38.10;30.50;;;;;;7385992;19;20409;-47
2022/08/03 13:26:17;;;;;;;2.83;2.00;;;38.00;30.50;;;;;;7385495;19;20375;-47
2022/08/03 13:28:46;;;;;;;2.73;1.97;;;37.90;30.80;;;;;;7372007;19;20384;-47
2022/08/03 13:31:16;;;;;;;1.90;1.70;;;37.80;31.10;;;;;;7373161;19;21091;-47
2022/08/03 13:33:45;;;;;;;2.80;1.90;;;37.30;31.30;;;;;;7379254;19;20387;-47